Doksany, Czech Republic

10:45 PM CEST on August 21, 2014 (GMT +0200)
Ovocnarstvi Ploskovice, Petrasek | Change Station
CLOSE
Current Station
Personal Weather Station
Location: Ploskovice, Litomerice
Elevation: 810 ft
Nearby Weather Stations

Elev 810 ft 50.56 °N, 14.20 °E | Updated 37 seconds ago

Clear
Clear
52.1 °F
Feels Like 52.1 °F
N
0.0
Wind Variable Wind from North
Gusts 0.0 mph

Today
High -- | Low -- °F
--% Chance of Precip.
Yesterday
High -- | Low -- °F
Precip. -- in
6:00 AM 8:11 PM
Waning Crescent, 12% visible
Pressure 30.04 in
Visibility -9999.0 miles
Clouds
Dew Point 47 °F
Humidity 84%
Rainfall 0.00 in
Snow Depth Not available.
UV Not available.
Pollen Not available.
Air Quality Not available.
Flu Activity Not available.
METAR LKPR 212030Z 19006KT 160V220 CAVOK 12/06 Q1017 NOSIG

More Conditions Fewer Conditions

Pressure 30.04 in
Visibility -9999.0 miles
Clouds
Dew Point 47 °F
Humidity 84%
Rainfall 0.00 in
Snow Depth Not available.
UV Not available.
Pollen Not available.
Air Quality Not available.
Flu Activity Not available.
METAR LKPR 212030Z 19006KT 160V220 CAVOK 12/06 Q1017 NOSIG

More Conditions Fewer Conditions

10-Day Weather Forecast

Almanac

Astronomy

Aug. 21, 2014 Rise Set
Actual Time 6:00 AM CEST 8:11 PM CEST
Civil Twilight 5:24 AM CEST 8:46 PM CEST
Nautical Twilight 4:40 AM CEST 9:31 PM CEST
Astronomical Twilight 3:49 AM CEST 10:21 PM CEST
Moon 2:05 AM CEST 5:37 PM CEST
Length of Visible Light 15h 21m
Length of Day
14h 10m
Tomorrow will be 3m 33s shorter.
Waning Crescent, 12% of the Moon is Illuminated
Today
Waning Crescent
Aug 25
New
Sep 2
First Quarter
Sep 8
Full
Sep 15
Last Quarter

Today's Extremes

Country Highs Country Lows

Community

WunderPhotos

Upload Photos

1,746,017 photos uploaded!

WunderBlogs® & News

Nearby

Snow Depth

Not available.

Earthquake Activity

City Distance Mag. Time & Date
No recent earthquake activity has been reported nearby.
Minimum magnitude displayed is 2.5.

Coastal Water Temperatures

Place Temperature
No Stations Reporting

Nearby Weather Stations